East Peoria, IL

7:00 AM CST on February 14, 2016 (GMT -0600)
Fondulac Heights | | Change Station
CLOSE
Current Station
Personal Weather Station
Location: East Peoria, IL
Elevation: 692 ft
Nearby Weather Stations
Active Advisory: Winter Weather Advisory

Elev 692 ft 40.69 °N, 89.53 °W | Updated 7 seconds ago

Overcast
Overcast
15.4 °F
Feels Like 8 °F
N
4.7
Wind Variable Wind from ESE
Gusts 7.3 mph

Today
High -- | Low -- °F
--% Chance of Precip.
Yesterday
High -- | Low -- °F
Precip. -- in
Pressure 30.28 in
Visibility 10.0 miles
Clouds Few 1300 ft
Overcast 3300 ft
Windchill 8 °F
Dew Point 10 °F
Humidity 80%
Rainfall 0.00 in
Snow Depth Not available.
6:53 AM 5:31 PM
Waxing Crescent, 41% visible
METAR KPIA 141254Z 13011KT 10SM FEW013 OVC033 M09/M12 A3024 RMK AO2 SLP254 T10891122
Pressure 30.28 in
Visibility 10.0 miles
Clouds Few 1300 ft
Overcast 3300 ft
Windchill 8 °F
Dew Point 10 °F
Humidity 80%
Rainfall 0.00 in
Snow Depth Not available.
6:53 AM 5:31 PM
Waxing Crescent, 41% visible
METAR KPIA 141254Z 13011KT 10SM FEW013 OVC033 M09/M12 A3024 RMK AO2 SLP254 T10891122

10-Day Weather Forecast

Almanac

Astronomy

Feb. 14, 2016 Rise Set
Actual Time
Civil Twilight
Nautical Twilight
Astronomical Twilight
Moon
Length of Visible Light
Length of Day
Tomorrow will be .
, % of the Moon is Illuminated

Today's Extremes

State Highs State Lows

Community

WunderPhotos

Upload Photos

1,892,775 photos uploaded!

WunderBlog® & News

Nearby

Air Quality

  Air Quality AQ Index Pollutant
Not available.

Snow Depth

Station Depth Elevation

Earthquake Activity

City Distance Mag. Time & Date
Minimum magnitude displayed is 2.5.

Coastal Water Temperatures

Place Temperature

Stations

Nearby Weather Stations

Station Location Temp. Windchill Dew Point Humidity Wind Precip. Elev Updated Type
                   

Watches & Warnings

Winter Weather Advisory
Issued: 3:35 AM CST Feb. 14, 2016 – National Weather Service

... Winter Weather Advisory remains in effect until 6 PM CST this
evening...

* timing... light to moderate snow will continue across central and
southeast Illinois today. The heaviest snow will occur from late
morning through mid-afternoon... before the snow tapers off from
west to east late in the day.

* Snow accumulations... 2 to 3 inches of snow will fall across
most of the area... with higher amounts of 4 to 5 inches focused
along and northwest of the Illinois River.

* Wind... southeast winds of 10 to 15 mph are expected... with gusts
of 20 to 25 mph during the afternoon.

* Main impact... snow-covered roads will create hazardous travel
conditions. Brisk southeasterly winds will cause some blowing
and drifting snow as well.

Precautionary/preparedness actions...

A Winter Weather Advisory for snow means that periods of snow
will cause primarily travel difficulties. Be prepared for snow
covered roads and limited visibilities... and use caution while
driving.



Barnes